Time;durP1;ratioP1;P1;durP2;ratioP2;P2;SDS_P1;SDS_P2;PMS_P1;PMS_P2;Temp;Humidity;BMP_temperature;BMP_pressure;BME280_temperature;BME280_humidity;BME280_pressure;Samples;Min_cycle;Max_cycle;Signal;HPM_P1;HPM_P2
2023/09/11 00:00:39;;;;;;;36.00;22.52;;;19.60;99.90;;;;;;5109637;27;20043;-59
2023/09/11 00:03:07;;;;;;;33.25;23.77;;;19.90;99.90;;;;;;5099937;27;20513;-59
2023/09/11 00:05:34;;;;;;;32.72;23.88;;;19.70;99.90;;;;;;5132970;27;20051;-59
2023/09/11 00:08:02;;;;;;;29.15;22.45;;;19.70;99.90;;;;;;5123365;27;20036;-59
2023/09/11 00:10:32;;;;;;;35.75;23.52;;;19.60;99.90;;;;;;5112091;28;20056;-59
2023/09/11 00:13:00;;;;;;;30.45;22.30;;;19.60;99.90;;;;;;5114524;27;20413;-59
2023/09/11 00:15:32;;;;;;;28.63;20.00;;;19.70;99.90;;;;;;5114887;27;20536;-59
2023/09/11 00:18:00;;;;;;;31.80;20.98;;;19.60;99.90;;;;;;5098812;28;20478;-59
2023/09/11 00:20:28;;;;;;;25.13;17.77;;;19.60;99.90;;;;;;5111509;28;20487;-59
2023/09/11 00:22:55;;;;;;;29.13;18.98;;;19.60;99.90;;;;;;5111238;28;20428;-59
2023/09/11 00:25:23;;;;;;;28.02;18.27;;;19.60;99.90;;;;;;5111930;28;20051;-59
2023/09/11 00:27:51;;;;;;;26.35;18.08;;;19.60;99.90;;;;;;5111662;28;20043;-59
2023/09/11 00:30:19;;;;;;;25.75;17.63;;;19.60;99.90;;;;;;5112159;28;20043;-58
2023/09/11 00:32:47;;;;;;;23.38;16.58;;;19.60;99.90;;;;;;5100950;27;20054;-59
2023/09/11 00:35:14;;;;;;;21.42;13.95;;;19.60;99.90;;;;;;5090161;28;20510;-59
2023/09/11 00:37:42;;;;;;;19.75;15.18;;;19.60;99.90;;;;;;5094248;28;20040;-59
2023/09/11 00:40:10;;;;;;;23.00;14.13;;;19.60;99.90;;;;;;5111197;28;20063;-59
2023/09/11 00:42:38;;;;;;;22.45;14.43;;;19.60;99.90;;;;;;5112328;27;20035;-59
2023/09/11 00:45:06;;;;;;;22.75;13.13;;;19.60;99.90;;;;;;5113304;27;20051;-59
2023/09/11 00:47:34;;;;;;;20.15;14.52;;;19.60;99.90;;;;;;5098396;28;20043;-59
2023/09/11 00:50:02;;;;;;;21.08;13.60;;;19.60;99.90;;;;;;5100071;27;20054;-59
2023/09/11 00:52:30;;;;;;;14.95;11.80;;;19.60;99.90;;;;;;5109896;28;20044;-59
2023/09/11 00:54:59;;;;;;;17.90;11.95;;;19.60;99.90;;;;;;5129135;27;20459;-59
2023/09/11 00:57:26;;;;;;;15.93;10.10;;;19.60;99.90;;;;;;5130085;27;20474;-59
2023/09/11 00:59:54;;;;;;;15.48;10.13;;;19.60;99.90;;;;;;5109413;28;20527;-59
2023/09/11 01:02:22;;;;;;;10.18;8.13;;;19.50;99.90;;;;;;5103883;27;20059;-59
2023/09/11 01:04:50;;;;;;;11.60;8.20;;;19.50;99.90;;;;;;5106109;28;20043;-59
2023/09/11 01:07:18;;;;;;;14.65;8.52;;;19.50;99.90;;;;;;5108667;28;20047;-58
2023/09/11 01:09:46;;;;;;;15.15;8.48;;;19.40;99.90;;;;;;5110875;28;20077;-59
2023/09/11 01:12:14;;;;;;;11.20;8.23;;;19.40;99.90;;;;;;5110025;28;20054;-59
2023/09/11 01:14:42;;;;;;;15.82;8.63;;;19.40;99.90;;;;;;5127669;27;20512;-59
2023/09/11 01:17:34;;;;;;;11.57;7.68;;;19.40;99.90;;;;;;5115441;27;20047;-59
2023/09/11 01:20:25;;;;;;;10.75;7.90;;;19.30;99.90;;;;;;5101743;28;20047;-59
2023/09/11 01:23:29;;;;;;;13.35;7.57;;;19.30;99.90;;;;;;5111058;27;20390;-59
2023/09/11 01:26:30;;;;;;;12.68;8.25;;;19.20;99.90;;;;;;5131102;27;20070;-59
2023/09/11 01:29:30;;;;;;;11.70;8.27;;;19.20;99.90;;;;;;5081648;28;20067;-59
2023/09/11 01:32:02;;;;;;;14.20;8.65;;;19.10;99.90;;;;;;5102743;27;20044;-59
2023/09/11 01:34:29;;;;;;;9.95;8.32;;;19.10;99.90;;;;;;5092692;28;20044;-59
2023/09/11 01:36:57;;;;;;;14.57;8.60;;;19.00;99.90;;;;;;5105248;28;20040;-59
2023/09/11 01:39:25;;;;;;;13.55;9.35;;;19.00;99.90;;;;;;5119802;27;20530;-60
2023/09/11 01:41:58;;;;;;;14.30;8.65;;;19.00;99.90;;;;;;5112086;28;20506;-59
2023/09/11 01:44:43;;;;;;;11.80;8.35;;;19.00;99.90;;;;;;5113639;28;20046;-59
2023/09/11 01:47:14;;;;;;;14.52;9.05;;;19.00;99.90;;;;;;5113647;27;20403;-59
2023/09/11 01:49:43;;;;;;;20.73;9.00;;;18.90;99.90;;;;;;5113706;28;20050;-59
2023/09/11 01:52:11;;;;;;;11.45;8.23;;;18.90;99.90;;;;;;5111770;28;20051;-59
2023/09/11 01:54:39;;;;;;;12.90;8.95;;;18.80;99.90;;;;;;5113882;28;20043;-60
2023/09/11 01:57:07;;;;;;;11.13;9.65;;;18.80;99.90;;;;;;5113871;28;20059;-59
2023/09/11 01:59:34;;;;;;;17.23;9.30;;;18.80;99.90;;;;;;5113119;28;20040;-59
2023/09/11 02:02:02;;;;;;;16.27;9.05;;;18.70;99.90;;;;;;5113404;28;20066;-59
2023/09/11 02:04:30;;;;;;;13.57;9.32;;;18.70;99.90;;;;;;5113716;28;20050;-59
2023/09/11 02:06:58;;;;;;;15.52;9.52;;;18.70;99.90;;;;;;5112042;28;20043;-59
2023/09/11 02:09:25;;;;;;;18.35;9.48;;;18.70;99.90;;;;;;5111945;28;20403;-59
2023/09/11 02:11:53;;;;;;;16.60;10.20;;;18.70;99.90;;;;;;5111736;28;20040;-59
2023/09/11 02:14:21;;;;;;;16.35;9.80;;;18.70;99.90;;;;;;5111897;28;20044;-59
2023/09/11 02:16:49;;;;;;;13.75;8.73;;;18.80;99.90;;;;;;5117044;27;20044;-59
2023/09/11 02:19:16;;;;;;;15.70;10.20;;;18.80;99.90;;;;;;5111997;28;20044;-59
2023/09/11 02:21:44;;;;;;;15.05;9.95;;;18.80;99.90;;;;;;5111864;28;20048;-59
2023/09/11 02:24:11;;;;;;;19.55;9.38;;;18.80;99.90;;;;;;5111929;28;20083;-58
2023/09/11 02:26:39;;;;;;;15.38;10.23;;;18.90;99.90;;;;;;5113109;28;20039;-59
2023/09/11 02:29:07;;;;;;;15.90;10.15;;;18.90;99.90;;;;;;5112859;28;20044;-59
2023/09/11 02:31:34;;;;;;;18.63;10.02;;;19.00;99.90;;;;;;5111472;28;20039;-59
2023/09/11 02:34:02;;;;;;;15.02;10.38;;;19.00;99.90;;;;;;5112955;28;20570;-59
2023/09/11 02:36:30;;;;;;;10.90;9.15;;;19.10;99.90;;;;;;5111481;28;20035;-59
2023/09/11 02:38:58;;;;;;;13.68;9.82;;;19.10;99.90;;;;;;5112669;28;20056;-59
2023/09/11 02:41:25;;;;;;;17.88;10.43;;;19.10;99.90;;;;;;5109215;28;20040;-59
2023/09/11 02:43:53;;;;;;;21.33;10.82;;;19.10;99.90;;;;;;5112552;28;20036;-59
2023/09/11 02:46:21;;;;;;;15.18;10.23;;;19.10;99.90;;;;;;5117025;27;20502;-59
2023/09/11 02:48:49;;;;;;;18.00;11.25;;;19.20;99.90;;;;;;5111886;28;20599;-59
2023/09/11 02:51:17;;;;;;;12.63;9.80;;;19.20;99.90;;;;;;5112553;28;20047;-59
2023/09/11 02:53:45;;;;;;;14.07;10.55;;;19.20;99.90;;;;;;5108509;28;20048;-59
2023/09/11 02:56:13;;;;;;;15.73;10.65;;;19.20;99.90;;;;;;5111400;28;20503;-59
2023/09/11 02:58:40;;;;;;;14.57;11.10;;;19.20;99.90;;;;;;5112548;28;20043;-59
2023/09/11 03:01:09;;;;;;;16.73;10.48;;;19.20;99.90;;;;;;5110751;28;20402;-59
2023/09/11 03:03:37;;;;;;;18.58;11.27;;;19.20;99.90;;;;;;5110790;28;20047;-59
2023/09/11 03:06:05;;;;;;;19.85;11.45;;;19.20;99.90;;;;;;5112229;28;20059;-59
2023/09/11 03:08:33;;;;;;;18.80;11.60;;;19.20;99.90;;;;;;5111162;28;20040;-59
2023/09/11 03:11:09;;;;;;;18.42;11.55;;;19.10;99.90;;;;;;5110364;28;20055;-58
2023/09/11 03:13:39;;;;;;;17.02;11.50;;;19.10;99.90;;;;;;5111272;28;20289;-59
2023/09/11 03:16:13;;;;;;;20.80;11.75;;;19.10;99.90;;;;;;5110907;27;20043;-59
2023/09/11 03:18:46;;;;;;;16.40;11.40;;;19.10;99.90;;;;;;5110583;28;20066;-59
2023/09/11 03:21:14;;;;;;;20.20;11.38;;;19.10;99.90;;;;;;5110682;28;20044;-59
2023/09/11 03:23:43;;;;;;;20.75;12.27;;;19.00;99.90;;;;;;5112136;28;20047;-59
2023/09/11 03:26:14;;;;;;;15.75;10.98;;;19.00;99.90;;;;;;5111112;28;20058;-58
2023/09/11 03:28:51;;;;;;;16.15;11.70;;;19.00;99.90;;;;;;5110955;28;20399;-59
2023/09/11 03:31:26;;;;;;;20.92;13.02;;;19.00;99.90;;;;;;5107160;28;20044;-59
2023/09/11 03:33:54;;;;;;;18.20;11.63;;;19.00;99.90;;;;;;5110052;28;20051;-59
2023/09/11 03:36:22;;;;;;;19.48;11.38;;;18.90;99.90;;;;;;5109859;28;20036;-59
2023/09/11 03:38:50;;;;;;;18.73;11.40;;;18.90;99.90;;;;;;5106968;28;20054;-61
2023/09/11 03:41:18;;;;;;;16.85;11.75;;;18.90;99.90;;;;;;5111754;28;20051;-59
2023/09/11 03:43:46;;;;;;;15.65;10.90;;;18.80;99.90;;;;;;5110718;28;20501;-59
2023/09/11 03:46:14;;;;;;;18.27;11.13;;;18.80;99.90;;;;;;5112830;28;20497;-59
2023/09/11 03:48:45;;;;;;;16.25;10.25;;;18.80;99.90;;;;;;5110562;28;20040;-58
2023/09/11 03:51:15;;;;;;;14.65;9.60;;;18.80;99.90;;;;;;5110245;28;20387;-59
2023/09/11 03:53:43;;;;;;;12.60;8.18;;;18.80;99.90;;;;;;5110675;28;20040;-58
2023/09/11 03:56:14;;;;;;;14.32;9.27;;;18.80;99.90;;;;;;5110592;28;20052;-58
2023/09/11 03:58:44;;;;;;;15.18;8.50;;;18.70;99.90;;;;;;5109814;28;20541;-59
2023/09/11 04:01:14;;;;;;;15.38;8.10;;;18.70;99.90;;;;;;5094019;28;20051;-58
2023/09/11 04:03:43;;;;;;;13.70;7.68;;;18.70;99.90;;;;;;5110410;28;20050;-58
2023/09/11 04:06:11;;;;;;;14.25;8.10;;;18.70;99.90;;;;;;5111528;28;20043;-59
2023/09/11 04:08:39;;;;;;;12.10;7.50;;;18.70;99.90;;;;;;5110408;28;20137;-58
2023/09/11 04:11:06;;;;;;;10.63;7.40;;;18.70;99.90;;;;;;5110350;28;20051;-59
2023/09/11 04:13:34;;;;;;;14.40;7.90;;;18.60;99.90;;;;;;5110407;28;20047;-58
2023/09/11 04:16:02;;;;;;;11.27;7.05;;;18.60;99.90;;;;;;5110853;28;20055;-59
2023/09/11 04:18:30;;;;;;;12.73;7.25;;;18.50;99.90;;;;;;5110336;28;20032;-59
2023/09/11 04:21:02;;;;;;;9.68;6.55;;;18.40;99.90;;;;;;5110552;28;20047;-59
2023/09/11 04:23:31;;;;;;;10.52;6.32;;;18.40;99.90;;;;;;5110538;28;20035;-59
2023/09/11 04:26:00;;;;;;;13.07;6.78;;;18.40;99.90;;;;;;5110117;28;20043;-59
2023/09/11 04:28:27;;;;;;;13.20;7.03;;;18.30;99.90;;;;;;5110504;28;20046;-58
2023/09/11 04:30:55;;;;;;;16.17;6.90;;;18.30;99.90;;;;;;5109389;28;20479;-58
2023/09/11 04:33:23;;;;;;;9.63;6.55;;;18.30;99.90;;;;;;5094413;28;20043;-58
2023/09/11 04:35:51;;;;;;;11.85;7.20;;;18.30;99.90;;;;;;5115165;28;20527;-59
2023/09/11 04:38:19;;;;;;;11.48;6.55;;;18.30;99.90;;;;;;5111307;28;20047;-59
2023/09/11 04:40:48;;;;;;;11.43;6.63;;;18.30;99.90;;;;;;5093501;28;20488;-58
2023/09/11 04:43:15;;;;;;;10.77;6.72;;;18.30;99.90;;;;;;5093716;28;20039;-59
2023/09/11 04:45:43;;;;;;;10.15;7.03;;;18.30;99.90;;;;;;5106734;27;20039;-59
2023/09/11 04:48:11;;;;;;;11.50;6.22;;;18.30;99.90;;;;;;5113019;27;20044;-59
2023/09/11 04:50:39;;;;;;;10.10;5.80;;;18.30;99.90;;;;;;5093540;28;20040;-61
2023/09/11 04:53:07;;;;;;;13.43;6.97;;;18.30;99.90;;;;;;5109856;28;20043;-61
2023/09/11 04:55:35;;;;;;;12.48;6.93;;;18.30;99.90;;;;;;5110020;28;20058;-61
2023/09/11 04:58:03;;;;;;;12.60;7.25;;;18.30;99.90;;;;;;5109867;28;20048;-60
2023/09/11 05:00:33;;;;;;;10.10;6.37;;;18.30;99.90;;;;;;5109790;28;20070;-60
2023/09/11 05:03:00;;;;;;;11.57;6.57;;;18.30;99.90;;;;;;5100116;27;20319;-60
2023/09/11 05:05:28;;;;;;;9.90;6.55;;;18.30;99.90;;;;;;5069400;28;20051;-60
2023/09/11 05:07:59;;;;;;;11.55;6.55;;;18.30;99.90;;;;;;5101633;27;20496;-60
2023/09/11 05:10:26;;;;;;;11.45;6.85;;;18.20;99.90;;;;;;5116083;27;20051;-61
2023/09/11 05:12:54;;;;;;;11.43;6.63;;;18.20;99.90;;;;;;5106823;28;20059;-60
2023/09/11 05:15:22;;;;;;;13.45;7.15;;;18.20;99.90;;;;;;5110059;27;20209;-60
2023/09/11 05:17:51;;;;;;;10.68;7.10;;;18.20;99.90;;;;;;5117583;27;20483;-60
2023/09/11 05:20:19;;;;;;;13.88;7.05;;;18.10;99.90;;;;;;5095058;28;20047;-60
2023/09/11 05:22:47;;;;;;;15.10;7.22;;;18.20;99.90;;;;;;5111921;27;20065;-60
2023/09/11 05:25:15;;;;;;;13.02;7.53;;;18.20;99.90;;;;;;5119592;27;20044;-61
2023/09/11 05:27:45;;;;;;;14.23;8.35;;;18.10;99.90;;;;;;5110024;27;20514;-61
2023/09/11 05:30:13;;;;;;;11.80;7.28;;;18.10;99.90;;;;;;5110174;28;20039;-60
2023/09/11 05:32:41;;;;;;;10.85;7.20;;;18.10;99.90;;;;;;5108880;28;20055;-61
2023/09/11 05:35:09;;;;;;;12.05;8.27;;;18.10;99.90;;;;;;5090141;28;20055;-61
2023/09/11 05:37:37;;;;;;;14.60;7.82;;;18.00;99.90;;;;;;5100828;28;20047;-60
2023/09/11 05:40:07;;;;;;;12.85;8.18;;;17.90;99.90;;;;;;5108312;28;20078;-60
2023/09/11 05:42:34;;;;;;;13.60;7.63;;;17.90;99.90;;;;;;5115298;27;20055;-60
2023/09/11 05:45:02;;;;;;;12.57;7.78;;;17.90;99.90;;;;;;5110566;27;20047;-60
2023/09/11 05:47:31;;;;;;;11.95;7.80;;;17.80;99.90;;;;;;5117042;27;20044;-60
2023/09/11 05:50:00;;;;;;;16.17;8.32;;;17.80;99.90;;;;;;5093351;28;20620;-60
2023/09/11 05:52:28;;;;;;;14.13;7.60;;;17.80;99.90;;;;;;5107738;28;20063;-60
2023/09/11 05:54:56;;;;;;;13.55;8.38;;;17.80;99.90;;;;;;5127174;27;20040;-60
2023/09/11 05:57:24;;;;;;;11.15;8.35;;;17.80;99.90;;;;;;5102836;27;20051;-61
2023/09/11 05:59:51;;;;;;;12.15;8.20;;;17.80;99.90;;;;;;5105413;28;20529;-60
2023/09/11 06:02:19;;;;;;;14.38;8.23;;;17.80;99.90;;;;;;5106280;28;20058;-60
2023/09/11 06:04:47;;;;;;;13.95;8.05;;;17.80;99.90;;;;;;5091359;27;20036;-60
2023/09/11 06:07:16;;;;;;;11.90;8.50;;;17.90;99.90;;;;;;5094337;27;20491;-60
2023/09/11 06:09:44;;;;;;;15.13;8.95;;;17.90;99.90;;;;;;5109968;28;20051;-59
2023/09/11 06:12:12;;;;;;;12.38;8.60;;;17.90;99.90;;;;;;5109779;28;20503;-59
2023/09/11 06:14:39;;;;;;;16.83;8.27;;;17.90;99.90;;;;;;5109894;28;20052;-60
2023/09/11 06:17:07;;;;;;;13.80;7.32;;;17.90;99.90;;;;;;5124259;27;20050;-60
2023/09/11 06:19:35;;;;;;;10.40;6.70;;;18.00;99.90;;;;;;5092712;27;20055;-61
2023/09/11 06:22:03;;;;;;;12.32;7.18;;;18.00;99.90;;;;;;5111574;27;20050;-61
2023/09/11 06:24:31;;;;;;;11.50;7.13;;;18.00;99.90;;;;;;5111638;27;20399;-61
2023/09/11 06:27:07;;;;;;;13.10;7.35;;;18.00;99.90;;;;;;5107556;27;20125;-61
2023/09/11 06:29:35;;;;;;;12.82;7.88;;;18.00;99.90;;;;;;5130195;27;20530;-60
2023/09/11 06:32:03;;;;;;;11.23;7.68;;;18.00;99.90;;;;;;5104925;27;20044;-60
2023/09/11 06:34:31;;;;;;;13.75;7.07;;;18.00;99.90;;;;;;5096577;27;20051;-60
2023/09/11 06:36:59;;;;;;;11.85;6.93;;;17.90;99.90;;;;;;5088107;28;20032;-60
2023/09/11 06:39:28;;;;;;;11.65;7.03;;;18.00;99.90;;;;;;5107981;27;20050;-60
2023/09/11 06:41:56;;;;;;;11.07;6.97;;;18.00;99.90;;;;;;5109275;27;20043;-60
2023/09/11 06:44:23;;;;;;;14.43;7.03;;;18.00;99.90;;;;;;5108760;28;20043;-59
2023/09/11 06:46:51;;;;;;;11.90;6.97;;;18.10;99.90;;;;;;5123568;27;20058;-60
2023/09/11 06:49:19;;;;;;;14.18;6.57;;;18.20;99.90;;;;;;5101828;27;20047;-60
2023/09/11 06:51:47;;;;;;;12.68;7.65;;;18.30;99.90;;;;;;5109203;28;20364;-61
2023/09/11 06:54:15;;;;;;;11.38;7.00;;;18.40;99.90;;;;;;5118374;27;20043;-61
2023/09/11 06:56:42;;;;;;;9.98;6.45;;;18.50;99.90;;;;;;5118443;27;20509;-60
2023/09/11 06:59:10;;;;;;;14.00;6.55;;;18.50;99.90;;;;;;5104146;28;20514;-60
2023/09/11 07:01:40;;;;;;;13.88;6.82;;;18.50;99.90;;;;;;5107262;28;20214;-60
2023/09/11 07:04:10;;;;;;;13.88;6.57;;;18.50;99.90;;;;;;5105772;27;20055;-60
2023/09/11 07:06:40;;;;;;;12.30;6.35;;;18.60;99.90;;;;;;5106694;28;20043;-60
2023/09/11 07:09:08;;;;;;;9.95;6.18;;;18.60;99.90;;;;;;5108374;28;20052;-60
2023/09/11 07:11:35;;;;;;;10.23;5.85;;;18.70;99.90;;;;;;5108536;28;20064;-60
2023/09/11 07:14:05;;;;;;;10.35;5.78;;;18.70;99.90;;;;;;5108216;28;20522;-60
2023/09/11 07:16:33;;;;;;;7.25;5.22;;;18.70;99.90;;;;;;5121570;27;20043;-60
2023/09/11 07:19:00;;;;;;;9.93;6.53;;;18.70;99.90;;;;;;5107618;28;20043;-60
2023/09/11 07:21:28;;;;;;;11.68;5.40;;;18.80;99.90;;;;;;5106445;28;20039;-60
2023/09/11 07:23:56;;;;;;;12.38;6.53;;;18.80;99.90;;;;;;5114074;27;20070;-60
2023/09/11 07:26:24;;;;;;;9.82;5.85;;;18.90;99.90;;;;;;5106027;28;20055;-59
2023/09/11 07:28:53;;;;;;;14.60;5.80;;;19.00;99.90;;;;;;5107126;28;20047;-59
2023/09/11 07:31:21;;;;;;;10.77;5.18;;;19.00;99.90;;;;;;5106871;28;20054;-58
2023/09/11 07:33:50;;;;;;;12.60;5.53;;;19.00;99.90;;;;;;5105226;28;20508;-59
2023/09/11 07:36:18;;;;;;;10.98;5.47;;;19.00;99.90;;;;;;5088131;28;20044;-58
2023/09/11 07:38:47;;;;;;;11.95;5.20;;;19.00;99.90;;;;;;5101056;28;20055;-58
2023/09/11 07:41:17;;;;;;;9.65;5.30;;;19.00;99.90;;;;;;5108195;28;20036;-59
2023/09/11 07:43:49;;;;;;;12.32;5.47;;;19.00;99.90;;;;;;5105584;28;20498;-58
2023/09/11 07:46:22;;;;;;;10.88;5.38;;;19.00;99.90;;;;;;5119047;28;20047;-58
2023/09/11 07:48:50;;;;;;;9.48;5.80;;;19.00;99.90;;;;;;5113028;28;20039;-58
2023/09/11 07:51:18;;;;;;;9.63;5.68;;;19.10;99.90;;;;;;5105591;28;20048;-59
2023/09/11 07:53:46;;;;;;;12.07;5.40;;;19.10;99.90;;;;;;5119368;28;20066;-59
2023/09/11 07:56:13;;;;;;;11.00;5.57;;;19.00;99.90;;;;;;5128889;28;20089;-59
2023/09/11 07:58:41;;;;;;;11.55;5.90;;;19.10;99.90;;;;;;5106871;28;20054;-58
2023/09/11 08:01:09;;;;;;;11.98;5.65;;;19.10;99.90;;;;;;5108052;28;20043;-59
2023/09/11 08:03:37;;;;;;;13.90;5.18;;;19.10;99.90;;;;;;5107849;28;20043;-59
2023/09/11 08:06:05;;;;;;;12.13;5.72;;;19.20;99.90;;;;;;5102509;28;20070;-59
2023/09/11 08:08:33;;;;;;;13.20;5.68;;;19.30;99.90;;;;;;5100301;28;20052;-59
2023/09/11 08:11:21;;;;;;;9.00;4.78;;;19.30;99.90;;;;;;5112184;28;20040;-58
2023/09/11 08:13:53;;;;;;;8.35;4.25;;;19.40;99.90;;;;;;5122195;27;20054;-58
2023/09/11 08:16:24;;;;;;;10.48;5.70;;;19.50;99.90;;;;;;5132289;27;20596;-59
2023/09/11 08:18:52;;;;;;;12.70;5.50;;;19.60;99.90;;;;;;5118027;27;20036;-59
2023/09/11 08:21:20;;;;;;;11.98;5.32;;;19.60;99.90;;;;;;5109169;28;20048;-58
2023/09/11 08:23:48;;;;;;;12.95;5.32;;;19.70;99.90;;;;;;5120947;27;20410;-58
2023/09/11 08:26:16;;;;;;;7.30;5.35;;;19.70;99.90;;;;;;5115715;27;20048;-59
2023/09/11 08:28:44;;;;;;;9.38;5.13;;;19.90;99.90;;;;;;5109427;27;20054;-59
2023/09/11 08:31:12;;;;;;;10.50;5.78;;;19.90;99.90;;;;;;5111696;28;20048;-59
2023/09/11 08:33:40;;;;;;;11.68;5.40;;;20.00;99.90;;;;;;5126551;27;20043;-59
2023/09/11 08:36:14;;;;;;;10.23;5.22;;;20.10;99.90;;;;;;5092841;27;20056;-59
2023/09/11 08:38:45;;;;;;;11.15;5.32;;;20.30;99.90;;;;;;5103870;27;20043;-59
2023/09/11 08:41:14;;;;;;;12.10;5.22;;;20.40;99.90;;;;;;5110266;28;20076;-59
2023/09/11 08:43:42;;;;;;;14.57;5.55;;;20.50;99.90;;;;;;5116396;27;20059;-59
2023/09/11 08:46:14;;;;;;;14.60;5.40;;;20.60;99.90;;;;;;5121248;27;20043;-58
2023/09/11 08:48:48;;;;;;;10.15;5.68;;;20.60;99.90;;;;;;5117859;27;20475;-59
2023/09/11 08:51:26;;;;;;;12.82;6.10;;;20.60;99.90;;;;;;5109770;27;20055;-59
2023/09/11 08:53:55;;;;;;;11.20;5.82;;;20.70;99.90;;;;;;5128064;27;20043;-59
2023/09/11 08:56:23;;;;;;;11.60;5.45;;;20.60;99.90;;;;;;5132076;27;20047;-59
2023/09/11 08:58:52;;;;;;;11.20;5.90;;;20.60;99.90;;;;;;5111966;27;20117;-59
2023/09/11 09:01:21;;;;;;;9.57;5.45;;;20.60;99.90;;;;;;5111186;28;20051;-59
2023/09/11 09:03:51;;;;;;;9.02;4.90;;;20.60;99.90;;;;;;5110702;27;20064;-59
2023/09/11 09:06:20;;;;;;;9.18;4.93;;;20.60;99.90;;;;;;5092373;27;20487;-59
2023/09/11 09:08:48;;;;;;;10.73;5.18;;;20.50;99.90;;;;;;5106273;28;20054;-60
2023/09/11 09:11:16;;;;;;;9.90;5.15;;;20.60;99.90;;;;;;5109389;28;20463;-60
2023/09/11 09:13:44;;;;;;;12.20;5.65;;;20.60;99.90;;;;;;5111137;27;20044;-60
2023/09/11 09:16:11;;;;;;;10.73;5.50;;;20.60;99.90;;;;;;5120381;27;20035;-59
2023/09/11 09:18:49;;;;;;;9.70;4.93;;;20.60;99.90;;;;;;5116238;27;20043;-60
2023/09/11 09:21:25;;;;;;;8.95;5.35;;;20.60;99.90;;;;;;5090429;28;20051;-60
2023/09/11 09:23:53;;;;;;;9.20;5.75;;;20.60;99.90;;;;;;5106592;28;20043;-59
2023/09/11 09:26:22;;;;;;;8.88;5.90;;;20.60;99.90;;;;;;5110277;28;20032;-60
2023/09/11 09:28:51;;;;;;;12.10;6.00;;;20.60;99.90;;;;;;5107948;27;20406;-60
2023/09/11 09:31:24;;;;;;;11.32;5.53;;;20.70;99.90;;;;;;5108048;28;20054;-59
2023/09/11 09:33:55;;;;;;;10.85;5.97;;;20.70;99.90;;;;;;5113087;27;20666;-59
2023/09/11 09:36:24;;;;;;;13.02;5.57;;;20.60;99.90;;;;;;5093335;28;20040;-59
2023/09/11 09:38:52;;;;;;;13.23;5.60;;;20.60;99.90;;;;;;5098302;28;20055;-59
2023/09/11 09:41:20;;;;;;;8.98;5.50;;;20.60;99.90;;;;;;5107214;28;20058;-59
2023/09/11 09:43:53;;;;;;;8.18;4.88;;;20.70;99.90;;;;;;5117252;27;20051;-59
2023/09/11 09:46:22;;;;;;;11.40;4.72;;;20.70;99.90;;;;;;5127154;27;20319;-59
2023/09/11 09:48:51;;;;;;;10.40;4.53;;;20.80;99.90;;;;;;5113759;27;20523;-59
2023/09/11 09:51:20;;;;;;;7.97;4.45;;;20.90;99.90;;;;;;5096018;28;20667;-59
2023/09/11 09:53:53;;;;;;;9.63;5.30;;;20.90;99.90;;;;;;5105258;28;20483;-59
2023/09/11 09:56:21;;;;;;;11.88;5.07;;;21.00;99.90;;;;;;5092170;28;20047;-60
2023/09/11 09:58:49;;;;;;;9.50;4.82;;;21.10;99.90;;;;;;5107946;27;20051;-59
2023/09/11 10:01:19;;;;;;;10.48;4.65;;;21.10;99.90;;;;;;5110283;28;20418;-59
2023/09/11 10:03:49;;;;;;;7.68;4.78;;;21.10;99.90;;;;;;5115360;27;20060;-59
2023/09/11 10:06:22;;;;;;;10.23;4.50;;;21.10;99.90;;;;;;5096969;28;20051;-59
2023/09/11 10:09:11;;;;;;;12.70;4.80;;;21.10;99.90;;;;;;5102912;28;20058;-59
2023/09/11 10:11:40;;;;;;;9.15;4.88;;;21.30;99.90;;;;;;5108683;28;20060;-60
2023/09/11 10:14:10;;;;;;;11.17;5.43;;;21.40;99.90;;;;;;5109157;28;20040;-60
2023/09/11 10:16:38;;;;;;;13.00;4.88;;;21.50;99.90;;;;;;5123458;27;20310;-59
2023/09/11 10:19:06;;;;;;;9.55;5.07;;;21.60;99.90;;;;;;5112714;27;20048;-59
2023/09/11 10:21:34;;;;;;;13.82;5.60;;;21.60;99.90;;;;;;5098911;27;20040;-59
2023/09/11 10:24:02;;;;;;;14.18;6.03;;;21.70;99.90;;;;;;5115066;27;20047;-59
2023/09/11 10:27:01;;;;;;;11.73;5.28;;;21.70;99.90;;;;;;5109427;28;20036;-60
2023/09/11 10:29:51;;;;;;;11.80;4.82;;;21.80;99.90;;;;;;5095034;27;20589;-60
2023/09/11 10:32:24;;;;;;;12.02;5.05;;;21.70;99.90;;;;;;5109450;28;20039;-59
2023/09/11 10:34:52;;;;;;;11.80;4.60;;;21.70;99.90;;;;;;5109500;28;20048;-59
2023/09/11 10:37:21;;;;;;;11.05;4.95;;;21.70;99.90;;;;;;5090472;27;20625;-60
2023/09/11 10:39:51;;;;;;;9.20;4.03;;;21.70;99.90;;;;;;5109165;28;20500;-59
2023/09/11 10:42:19;;;;;;;6.95;3.90;;;21.70;99.90;;;;;;5108887;28;20044;-60
2023/09/11 10:44:47;;;;;;;4.63;3.03;;;21.60;99.90;;;;;;5127319;27;20039;-61
2023/09/11 10:47:15;;;;;;;4.35;2.50;;;21.50;99.90;;;;;;5129647;27;20057;-61
2023/09/11 10:49:43;;;;;;;4.53;2.80;;;21.40;99.90;;;;;;5092415;28;20054;-60
2023/09/11 10:52:11;;;;;;;3.75;2.20;;;21.30;99.90;;;;;;5091234;27;20384;-60
2023/09/11 10:54:40;;;;;;;4.78;2.45;;;21.20;99.90;;;;;;5125957;27;20039;-59
2023/09/11 10:57:08;;;;;;;4.68;3.03;;;21.20;99.90;;;;;;5128861;27;20502;-60
2023/09/11 10:59:36;;;;;;;6.53;3.10;;;21.10;99.90;;;;;;5106473;27;20047;-59
2023/09/11 11:02:04;;;;;;;4.82;2.85;;;21.10;99.90;;;;;;5109301;27;20047;-59
2023/09/11 11:04:32;;;;;;;7.95;4.00;;;21.10;99.90;;;;;;5113400;27;20078;-59
2023/09/11 11:07:01;;;;;;;7.25;3.40;;;21.10;99.90;;;;;;5094334;28;20051;-59
2023/09/11 11:09:34;;;;;;;6.68;3.50;;;21.20;99.90;;;;;;5105619;28;20048;-60
2023/09/11 11:12:08;;;;;;;4.82;3.05;;;21.30;99.90;;;;;;5105621;28;20082;-60
2023/09/11 11:14:37;;;;;;;5.10;3.17;;;21.30;99.90;;;;;;5106182;28;20156;-60
2023/09/11 11:17:15;;;;;;;3.35;2.38;;;21.40;99.90;;;;;;5124913;27;20529;-60
2023/09/11 11:19:58;;;;;;;7.30;2.67;;;21.50;99.90;;;;;;5088481;28;20044;-61
2023/09/11 11:22:34;;;;;;;5.82;2.55;;;21.60;99.90;;;;;;5092915;28;20040;-61
2023/09/11 11:25:05;;;;;;;3.60;2.53;;;21.70;99.90;;;;;;5108924;27;20040;-60
2023/09/11 11:27:33;;;;;;;5.45;2.20;;;21.70;99.90;;;;;;5108000;28;20048;-59
2023/09/11 11:30:01;;;;;;;3.03;2.10;;;21.80;99.90;;;;;;5106358;28;20055;-59
2023/09/11 11:32:32;;;;;;;4.47;2.13;;;22.10;99.90;;;;;;5111075;27;20475;-60
2023/09/11 11:35:02;;;;;;;1.92;1.35;;;22.30;99.90;;;;;;5104028;28;20047;-61
2023/09/11 11:37:32;;;;;;;2.58;1.40;;;22.50;99.90;;;;;;5102029;28;20047;-60
2023/09/11 11:40:00;;;;;;;4.30;1.50;;;22.80;99.90;;;;;;5108508;28;20077;-61
2023/09/11 11:42:29;;;;;;;3.00;1.50;;;23.00;99.90;;;;;;5110087;27;20067;-60
2023/09/11 11:44:57;;;;;;;1.85;1.50;;;23.00;99.90;;;;;;5106595;28;20043;-60
2023/09/11 11:47:26;;;;;;;6.82;1.73;;;23.20;99.90;;;;;;5117379;28;20231;-61
2023/09/11 11:49:54;;;;;;;4.40;1.60;;;23.50;99.90;;;;;;5115327;28;20482;-61
2023/09/11 11:52:23;;;;;;;1.67;1.38;;;23.80;99.90;;;;;;5098192;28;20387;-59
2023/09/11 11:54:51;;;;;;;4.80;1.50;;;23.90;99.90;;;;;;5124709;28;20062;-59
2023/09/11 11:57:20;;;;;;;1.60;1.00;;;24.00;99.90;;;;;;5128293;27;20055;-60
2023/09/11 11:59:48;;;;;;;2.45;1.48;;;24.00;99.90;;;;;;5110773;28;20048;-59
2023/09/11 12:02:23;;;;;;;3.28;1.48;;;23.90;99.90;;;;;;5109383;28;20604;-60
2023/09/11 12:04:53;;;;;;;3.03;1.58;;;23.80;99.90;;;;;;5110219;28;20051;-60
2023/09/11 12:07:22;;;;;;;2.90;1.60;;;23.60;99.90;;;;;;5098872;28;20036;-60
2023/09/11 12:09:50;;;;;;;4.43;1.85;;;23.60;99.90;;;;;;5090303;28;20055;-61
2023/09/11 12:12:19;;;;;;;2.92;1.70;;;23.70;99.90;;;;;;5107789;28;20491;-60
2023/09/11 12:14:47;;;;;;;3.75;1.55;;;23.90;99.90;;;;;;5124217;28;20047;-60
2023/09/11 12:17:14;;;;;;;1.48;1.20;;;24.30;99.90;;;;;;5127159;28;20047;-61
2023/09/11 12:19:42;;;;;;;3.72;1.55;;;24.50;99.90;;;;;;5127058;28;20406;-59
2023/09/11 12:22:10;;;;;;;2.83;1.63;;;24.70;99.90;;;;;;5115287;28;20044;-60
2023/09/11 12:24:38;;;;;;;3.45;1.30;;;25.20;99.90;;;;;;5107431;28;20532;-61
2023/09/11 12:27:06;;;;;;;4.43;1.17;;;25.80;99.90;;;;;;5108139;28;20048;-59
2023/09/11 12:29:34;;;;;;;1.83;0.77;;;26.40;99.90;;;;;;5105225;28;20495;-60
2023/09/11 12:32:03;;;;;;;2.22;1.08;;;26.90;99.90;;;;;;5104397;28;20034;-59
2023/09/11 12:34:44;;;;;;;1.30;0.70;;;27.10;99.90;;;;;;5101394;28;20047;-60
2023/09/11 12:37:11;;;;;;;1.10;0.52;;;27.20;99.90;;;;;;5098043;28;20043;-60
2023/09/11 12:39:39;;;;;;;1.40;0.70;;;27.30;99.90;;;;;;5107211;28;20047;-60
2023/09/11 12:42:07;;;;;;;3.70;0.90;;;27.60;99.90;;;;;;5106877;28;20043;-60
2023/09/11 12:44:35;;;;;;;1.40;0.60;;;27.80;99.90;;;;;;5123283;28;20054;-60
2023/09/11 12:47:03;;;;;;;2.67;0.60;;;27.90;99.90;;;;;;5121732;28;20062;-60
2023/09/11 12:49:31;;;;;;;0.60;0.50;;;27.70;99.90;;;;;;5107869;28;20044;-60